Airfield :
LOGIN :

Register | Disclaimer

   EN    FR    IT 

 










Legend :    VFR   Marginal VFR   IFR   Intensive IFR   Very Intensive IFR
Visi :
Ceiling :
>= 8 km
>= 3000ft
5 to 8 km
1000 to 3000 ft
1500m to 5 km
500 to 1000 ft
800 to 1500m
200 to 500 ft
< 800m
< 200 ft
Symbols :   Thunderstorms  Fog  Heavy snow  Heavy precipitations  Wind > 20 kt
SIGMETs :     Misc.  Thunderstorms  Icing  Turbulence  Mountain Waves  Volcanic Ashes







- Airport Elevation : 3 ft
- IATA code : LWR


EHLW - Leuuwarden Air Base

CURRENT METAR :
  • 211325Z AUTO 25013KT 220V290 9000 BR FEW006 BKN007 OVC008 09/08 Q1024 GRN 25013KT 5500 BKN007 TEMPO 1500 BR SCT002 BKN004 RMK R23

EXPIRED METARs :
  • 211308Z AUTO 25014KT 6000 BR FEW005 BKN006 BKN007 09/09 Q1024 YLO 25013KT 5500 BKN007 TEMPO 1500 BR SCT002 BKN004 RMK R23
  • 211255Z AUTO 26014KT 5000 BR SCT003 BKN005 OVC006 09/09 Q1024 YLO 25013KT 5500 BKN007 TEMPO 1500 BR SCT002 BKN004 RMK R23
  • 211226Z AUTO 25012KT 1900 R23/2200U BR SCT003 BKN004 OVC005 09/08 Q1024 YLO 25013KT 5500 BKN007 TEMPO 1500 BR SCT002 BKN004 RMK R23
  • 211214Z AUTO 25011KT 1700 R23/1700N BR SCT002 BKN003 OVC005 09/08 Q1024 AMB 25013KT 5500 BKN007 TEMPO 1500 BR SCT002 BKN004 RMK R23
  • 211204Z AUTO 25011KT 1600 R23/1600N BR BKN003 OVC004 08/08 Q1024 YLO 25013KT 5500 BKN007 TEMPO 1500 BR SCT002 BKN004 RMK R23
  • 211203Z AUTO 25012KT 1700 R23/1600D BR BKN002 OVC004 08/08 Q1024 AMB 25013KT 5500 BKN007 TEMPO 1500 BR SCT002 BKN004 RMK R23
  • 211155Z AUTO 25012KT 1800 R23/1900D BR BKN003 OVC004 08/08 Q1024 YLO 25013KT 5500 BKN007 TEMPO 1500 BR SCT002 BKN004 RMK R23
  • 211144Z AUTO 25012KT 2300 BR OVC004 08/08 Q1024 YLO 25013KT 5500 BKN007 TEMPO 1500 BR SCT002 BKN004 RMK R23
  • 211136Z AUTO 25013KT 5000 BR OVC004 09/08 Q1024 YLO 25013KT 4500 BR SCT003 BKN005 RMK R23
  • 211125Z AUTO 25013KT 5000 BR OVC005 09/08 Q1024 YLO
  • 211055Z AUTO 24015KT 210V270 5000 BR OVC006 09/08 Q1023 YLO
  • 211025Z AUTO 24015KT 5000 BR FEW004 SCT005 BKN006 09/08 Q1023 YLO

TAF TAF EHLW
Valid from the 21 at 10:00 until the 21 at 22:00 UTC


210947Z 2110/2122 24012KT 3000 BR -RADZ SCT004 OVC005
PROB30
TEMPO 2110/2116 1500 DZ SCT002 BKN004
BECMG 2116/2119 4000 BR FEW008 SCT012 BKN020
No reported NOTAMs for that airfield.



MET'MAP, your aeronautical weather chart ! - Copyright ORBIFLY December 2007 - Disclaimer

ORBIFLY MET'MAP TEAM :

Programming & Development : Alexandra Zaïnal
Concept & Development : Baudouin d'Aumeries
Co-Development & Prog : Marc-Olivier Méhu
Technical & hardware support : Manuel Goepfert

Contact : metmap@orbifly.com




SOURCES & CREDITS :

   NOAA